Time;durP1;ratioP1;P1;durP2;ratioP2;P2;SDS_P1;SDS_P2;PMS_P1;PMS_P2;Temp;Humidity;BMP_temperature;BMP_pressure;BME280_temperature;BME280_humidity;BME280_pressure;Samples;Min_cycle;Max_cycle;Signal;HPM_P1;HPM_P2
2021/12/26 00:00:38;;;;;;;9.57;7.33;;;-3.50;99.90;;;;;;651275;220;26538;-84
2021/12/26 00:03:05;;;;;;;9.50;7.60;;;-3.40;99.90;;;;;;654396;219;26738;-85
2021/12/26 00:05:33;;;;;;;9.03;7.70;;;-3.50;99.90;;;;;;654392;219;26516;-85
2021/12/26 00:08:00;;;;;;;9.10;7.90;;;-3.50;99.90;;;;;;653150;218;26708;-84
2021/12/26 00:10:28;;;;;;;10.57;7.50;;;-3.50;99.90;;;;;;655714;219;26548;-85
2021/12/26 00:12:54;;;;;;;10.23;7.63;;;-3.40;99.90;;;;;;652368;219;26523;-85
2021/12/26 00:15:22;;;;;;;15.30;7.93;;;-3.60;99.90;;;;;;655286;219;26457;-85
2021/12/26 00:17:50;;;;;;;8.27;7.23;;;-3.60;99.90;;;;;;655108;220;26502;-84
2021/12/26 00:20:17;;;;;;;13.30;8.23;;;-3.60;99.90;;;;;;655009;219;26555;-85
2021/12/26 00:22:44;;;;;;;11.97;8.83;;;-3.60;99.90;;;;;;651702;221;26537;-78
2021/12/26 00:25:12;;;;;;;10.63;7.90;;;-4.00;99.90;;;;;;654053;219;26604;-82
2021/12/26 00:27:40;;;;;;;12.13;7.47;;;-3.90;99.90;;;;;;653816;219;26526;-79
2021/12/26 00:30:12;;;;;;;9.50;7.70;;;-3.90;99.90;;;;;;653739;220;26532;-77
2021/12/26 00:32:39;;;;;;;9.37;7.73;;;-3.90;99.90;;;;;;651393;220;27239;-77
2021/12/26 00:35:07;;;;;;;10.17;8.07;;;-4.00;99.90;;;;;;651239;221;26548;-77
2021/12/26 00:37:34;;;;;;;8.97;7.73;;;-3.90;99.90;;;;;;651279;221;26732;-77
2021/12/26 00:40:01;;;;;;;14.80;8.50;;;-3.80;99.90;;;;;;651237;220;26566;-77
2021/12/26 00:42:29;;;;;;;9.17;7.70;;;-3.80;99.90;;;;;;651266;219;26770;-79
2021/12/26 00:44:57;;;;;;;11.40;7.83;;;-3.90;99.90;;;;;;651069;220;26540;-78
2021/12/26 00:47:29;;;;;;;11.27;8.40;;;-3.90;99.90;;;;;;651029;220;26497;-78
2021/12/26 00:49:52;;;;;;;12.57;8.63;;;-3.90;99.90;;;;;;650596;220;26561;-78
2021/12/26 00:52:20;;;;;;;10.90;7.83;;;-3.90;99.90;;;;;;651064;220;26549;-78
2021/12/26 00:54:48;;;;;;;14.10;8.20;;;-4.00;99.90;;;;;;651043;220;26538;-78
2021/12/26 00:57:15;;;;;;;10.47;8.10;;;-4.00;99.90;;;;;;654005;219;26554;-79
2021/12/26 00:59:42;;;;;;;12.27;8.17;;;-4.00;99.90;;;;;;653920;220;26613;-78
2021/12/26 01:02:09;;;;;;;12.00;8.60;;;-4.10;99.90;;;;;;654028;219;26557;-78
2021/12/26 01:04:39;;;;;;;16.80;9.90;;;-4.00;99.90;;;;;;653979;219;26742;-78
2021/12/26 01:07:10;;;;;;;14.83;9.50;;;-3.90;99.90;;;;;;650947;220;26547;-77
2021/12/26 01:09:31;;;;;;;17.20;10.37;;;-4.10;99.90;;;;;;650563;220;26574;-79
2021/12/26 01:12:03;;;;;;;17.13;11.53;;;-4.20;99.90;;;;;;650953;221;26870;-78
2021/12/26 01:14:29;;;;;;;14.67;10.33;;;-4.10;99.90;;;;;;650796;220;26545;-77
2021/12/26 01:17:02;;;;;;;15.27;11.30;;;-4.00;99.90;;;;;;653756;219;26542;-78
2021/12/26 01:19:25;;;;;;;19.10;12.57;;;-4.00;99.90;;;;;;651840;218;26573;-78
2021/12/26 01:21:48;;;;;;;17.70;13.23;;;-4.00;99.90;;;;;;654844;219;26563;-78
2021/12/26 01:24:17;;;;;;;17.20;12.60;;;-4.20;99.90;;;;;;654835;219;26555;-78
2021/12/26 01:26:44;;;;;;;19.23;13.10;;;-4.40;99.90;;;;;;651818;220;26553;-78
2021/12/26 01:29:11;;;;;;;19.43;13.83;;;-4.40;99.90;;;;;;654483;219;26574;-78
2021/12/26 01:31:38;;;;;;;23.57;14.30;;;-4.50;99.90;;;;;;654606;219;26566;-78
2021/12/26 01:34:06;;;;;;;20.80;14.17;;;-4.50;99.90;;;;;;654469;219;26545;-78
2021/12/26 01:36:34;;;;;;;19.63;14.77;;;-4.40;99.90;;;;;;654330;219;26554;-78
2021/12/26 01:39:02;;;;;;;21.07;14.10;;;-4.50;99.90;;;;;;654645;219;26502;-78
2021/12/26 01:41:30;;;;;;;23.83;15.63;;;-4.60;99.90;;;;;;651762;220;26475;-80
2021/12/26 01:44:03;;;;;;;22.40;14.90;;;-4.70;99.90;;;;;;654726;219;26504;-79
2021/12/26 01:46:24;;;;;;;20.10;14.20;;;-4.70;99.90;;;;;;651363;220;26556;-78
2021/12/26 01:49:01;;;;;;;20.07;13.83;;;-4.70;99.90;;;;;;654672;219;26503;-79
2021/12/26 01:51:28;;;;;;;19.33;13.37;;;-4.70;99.90;;;;;;654667;219;26515;-78
2021/12/26 01:53:57;;;;;;;16.70;12.67;;;-4.00;99.90;;;;;;651766;221;26504;-78
2021/12/26 01:56:22;;;;;;;22.00;13.53;;;-4.60;99.90;;;;;;654322;219;26507;-78
2021/12/26 01:58:52;;;;;;;18.77;13.53;;;-4.30;99.90;;;;;;654386;219;26553;-79
2021/12/26 02:01:18;;;;;;;19.27;13.87;;;-4.40;99.90;;;;;;651436;220;26540;-78
2021/12/26 02:03:45;;;;;;;18.47;13.13;;;-4.20;99.90;;;;;;654371;220;26523;-78
2021/12/26 02:06:13;;;;;;;20.87;13.67;;;-4.10;99.90;;;;;;654377;219;26500;-78
2021/12/26 02:08:41;;;;;;;20.23;14.33;;;-4.10;99.90;;;;;;653987;219;26552;-78
2021/12/26 02:11:09;;;;;;;22.17;14.00;;;-4.10;99.90;;;;;;653877;219;26552;-78
2021/12/26 02:13:38;;;;;;;19.60;13.60;;;-4.10;99.90;;;;;;653832;219;26548;-78
2021/12/26 02:16:06;;;;;;;17.73;13.47;;;-4.10;99.90;;;;;;650984;221;26484;-78
2021/12/26 02:18:33;;;;;;;15.17;11.60;;;-4.10;99.90;;;;;;653876;220;26540;-78
2021/12/26 02:21:18;;;;;;;19.53;13.27;;;-4.20;99.90;;;;;;653915;219;26477;-78
2021/12/26 02:23:43;;;;;;;18.87;12.40;;;-4.20;99.90;;;;;;649857;220;26747;-78
2021/12/26 02:28:34;;;;;;;15.63;11.50;;;-4.30;99.90;;;;;;653874;219;26529;-78
2021/12/26 02:31:02;;;;;;;20.80;12.47;;;-4.30;99.90;;;;;;655521;217;26536;-78
2021/12/26 02:33:30;;;;;;;15.77;11.97;;;-4.30;99.90;;;;;;655262;218;26536;-78
2021/12/26 02:35:58;;;;;;;16.80;11.40;;;-4.20;99.90;;;;;;654817;219;26556;-78
2021/12/26 02:38:26;;;;;;;18.80;11.67;;;-4.30;99.90;;;;;;654695;219;26545;-78
2021/12/26 02:40:54;;;;;;;17.23;13.27;;;-4.30;99.90;;;;;;654445;219;26553;-78
2021/12/26 02:43:22;;;;;;;16.13;11.23;;;-4.40;99.90;;;;;;654495;219;26542;-78
2021/12/26 02:45:50;;;;;;;14.20;11.37;;;-4.30;99.90;;;;;;654446;219;26570;-78
2021/12/26 02:48:18;;;;;;;19.27;12.87;;;-4.50;99.90;;;;;;651354;220;26555;-78
2021/12/26 02:50:45;;;;;;;16.43;12.03;;;-4.50;99.90;;;;;;654169;220;26501;-78
2021/12/26 02:53:13;;;;;;;16.97;12.60;;;-4.80;99.90;;;;;;654116;219;26794;-78
2021/12/26 02:55:41;;;;;;;17.40;12.23;;;-4.90;99.90;;;;;;654013;219;26501;-78
2021/12/26 02:58:07;;;;;;;18.67;12.80;;;-4.80;99.90;;;;;;651233;219;26705;-78
2021/12/26 03:00:35;;;;;;;15.43;12.47;;;-4.70;99.90;;;;;;651230;219;26518;-78
2021/12/26 03:03:02;;;;;;;18.17;12.13;;;-4.60;99.90;;;;;;650613;220;26862;-78
2021/12/26 03:05:29;;;;;;;17.97;12.73;;;-4.60;99.90;;;;;;651164;219;26507;-78
2021/12/26 03:07:56;;;;;;;19.97;11.70;;;-4.50;99.90;;;;;;650948;220;26805;-78
2021/12/26 03:10:25;;;;;;;17.07;11.80;;;-4.50;99.90;;;;;;650904;221;26530;-78
2021/12/26 03:12:52;;;;;;;20.73;13.43;;;-4.50;99.90;;;;;;650932;220;26541;-78
2021/12/26 03:15:19;;;;;;;18.00;12.40;;;-4.40;99.90;;;;;;653474;219;26537;-78
2021/12/26 03:17:47;;;;;;;17.47;12.37;;;-4.30;99.90;;;;;;653768;219;26591;-78
2021/12/26 03:20:15;;;;;;;18.57;12.70;;;-4.30;99.90;;;;;;650800;220;26564;-78
2021/12/26 03:22:44;;;;;;;15.10;11.90;;;-4.40;99.90;;;;;;653490;219;26551;-78
2021/12/26 03:25:11;;;;;;;18.77;12.50;;;-4.50;99.90;;;;;;650728;221;26562;-78
2021/12/26 03:27:39;;;;;;;14.60;11.97;;;-4.50;99.90;;;;;;653935;219;26547;-78
2021/12/26 03:30:07;;;;;;;16.67;11.87;;;-4.60;99.90;;;;;;653682;219;26573;-78
2021/12/26 03:32:35;;;;;;;15.67;11.43;;;-4.70;99.90;;;;;;653794;220;26537;-78
2021/12/26 03:35:03;;;;;;;14.53;10.53;;;-4.60;99.90;;;;;;653835;219;26541;-78
2021/12/26 03:37:30;;;;;;;14.03;10.33;;;-4.60;99.90;;;;;;653832;219;26556;-78
2021/12/26 03:39:58;;;;;;;14.70;10.27;;;-4.60;99.90;;;;;;653839;219;26564;-78
2021/12/26 03:42:26;;;;;;;17.67;11.03;;;-4.60;99.90;;;;;;655315;217;26562;-77
2021/12/26 03:44:54;;;;;;;16.53;11.07;;;-4.50;99.90;;;;;;655320;218;26553;-78
2021/12/26 03:47:22;;;;;;;15.73;11.13;;;-4.40;99.90;;;;;;654890;219;26540;-77
2021/12/26 03:49:50;;;;;;;14.23;10.47;;;-4.30;99.90;;;;;;654837;219;26532;-78
2021/12/26 03:52:18;;;;;;;11.40;10.20;;;-4.30;99.90;;;;;;654523;219;26542;-78
2021/12/26 03:54:46;;;;;;;15.00;9.97;;;-4.20;99.90;;;;;;654510;220;26541;-78
2021/12/26 03:57:14;;;;;;;14.87;10.23;;;-4.20;99.90;;;;;;654521;219;26586;-77
2021/12/26 03:59:42;;;;;;;12.63;10.27;;;-4.30;99.90;;;;;;654347;219;26545;-77
2021/12/26 04:02:10;;;;;;;12.40;10.43;;;-4.50;99.90;;;;;;654183;219;26578;-77
2021/12/26 04:04:38;;;;;;;16.03;9.80;;;-4.50;99.90;;;;;;654228;219;26485;-77
2021/12/26 04:07:06;;;;;;;12.27;9.47;;;-4.60;99.90;;;;;;651199;220;26495;-77
2021/12/26 04:09:34;;;;;;;15.30;10.83;;;-4.80;99.90;;;;;;654154;219;26525;-77
2021/12/26 04:12:02;;;;;;;12.60;10.43;;;-4.80;99.90;;;;;;654167;220;26523;-78
2021/12/26 04:14:30;;;;;;;12.40;10.07;;;-4.80;99.90;;;;;;654084;220;26504;-79
2021/12/26 04:16:57;;;;;;;12.97;10.07;;;-4.80;99.90;;;;;;654076;220;26589;-77
2021/12/26 04:19:24;;;;;;;13.33;10.90;;;-4.80;99.90;;;;;;653833;219;26766;-78
2021/12/26 04:21:52;;;;;;;15.30;11.93;;;-4.60;99.90;;;;;;653878;219;26551;-78
2021/12/26 04:24:19;;;;;;;18.33;12.30;;;-4.60;99.90;;;;;;653870;219;26534;-78
2021/12/26 04:26:46;;;;;;;17.17;12.27;;;-4.50;99.90;;;;;;653820;220;26545;-77
2021/12/26 04:29:14;;;;;;;19.10;12.50;;;-4.40;99.90;;;;;;653776;219;26568;-77
2021/12/26 04:31:42;;;;;;;14.20;11.57;;;-4.50;99.90;;;;;;653822;219;26599;-77
2021/12/26 04:34:10;;;;;;;19.47;10.93;;;-4.40;99.90;;;;;;653830;219;26551;-78
2021/12/26 04:36:38;;;;;;;16.90;11.50;;;-4.40;99.90;;;;;;653801;219;26546;-77
2021/12/26 04:39:05;;;;;;;15.60;11.07;;;-4.40;99.90;;;;;;653713;219;26553;-77
2021/12/26 04:41:33;;;;;;;17.67;11.53;;;-4.40;99.90;;;;;;650854;220;26778;-77
2021/12/26 04:44:01;;;;;;;16.00;12.40;;;-4.40;99.90;;;;;;653782;219;26568;-77
2021/12/26 04:46:29;;;;;;;16.13;11.67;;;-4.30;99.90;;;;;;650848;220;26501;-77
2021/12/26 04:48:57;;;;;;;19.00;11.87;;;-4.60;99.90;;;;;;653770;219;26560;-77
2021/12/26 04:51:24;;;;;;;16.87;11.27;;;-4.60;99.90;;;;;;653916;219;26537;-77
2021/12/26 04:53:51;;;;;;;16.17;10.80;;;-5.10;99.90;;;;;;655234;217;26771;-78
2021/12/26 04:56:19;;;;;;;14.93;10.43;;;-5.10;99.90;;;;;;655364;219;26525;-78
2021/12/26 04:58:47;;;;;;;16.10;10.13;;;-5.00;99.90;;;;;;654962;219;26547;-77
2021/12/26 05:01:15;;;;;;;15.43;9.87;;;-4.70;99.90;;;;;;654876;219;26576;-78
2021/12/26 05:03:42;;;;;;;15.83;10.67;;;-4.70;99.90;;;;;;651569;220;26553;-78
2021/12/26 05:06:09;;;;;;;18.63;10.63;;;-4.60;99.90;;;;;;654430;219;26546;-77
2021/12/26 05:08:37;;;;;;;16.17;11.13;;;-4.60;99.90;;;;;;654416;219;26544;-77
2021/12/26 05:11:05;;;;;;;14.37;10.83;;;-4.50;99.90;;;;;;654349;219;26505;-77
2021/12/26 05:13:33;;;;;;;17.43;11.47;;;-4.60;99.90;;;;;;654216;219;26494;-77
2021/12/26 05:16:00;;;;;;;14.57;10.50;;;-4.60;99.90;;;;;;654143;219;26495;-77
2021/12/26 05:18:28;;;;;;;17.83;11.07;;;-4.60;99.90;;;;;;654102;220;26498;-77
2021/12/26 05:20:56;;;;;;;13.73;10.07;;;-4.50;99.90;;;;;;654115;219;26520;-78
2021/12/26 05:23:24;;;;;;;14.00;10.67;;;-4.30;99.90;;;;;;651131;220;26603;-77
2021/12/26 05:25:51;;;;;;;16.53;11.00;;;-4.30;99.90;;;;;;654158;219;26497;-77
2021/12/26 05:28:19;;;;;;;12.80;10.90;;;-4.40;99.90;;;;;;653956;219;26506;-77
2021/12/26 05:30:47;;;;;;;14.60;10.80;;;-4.40;99.90;;;;;;653545;219;26549;-77
2021/12/26 05:33:14;;;;;;;14.57;10.80;;;-4.40;99.90;;;;;;653470;219;26763;-77
2021/12/26 05:35:42;;;;;;;14.37;9.60;;;-4.40;99.90;;;;;;653663;219;26541;-78
2021/12/26 05:38:09;;;;;;;15.73;9.87;;;-4.40;99.90;;;;;;653720;219;26545;-77
2021/12/26 05:40:36;;;;;;;12.43;8.53;;;-4.40;99.90;;;;;;653697;219;26560;-77
2021/12/26 05:43:03;;;;;;;15.33;9.47;;;-4.40;99.90;;;;;;653795;219;26618;-77
2021/12/26 05:45:31;;;;;;;11.40;8.73;;;-4.50;99.90;;;;;;653847;219;26570;-78
2021/12/26 05:47:58;;;;;;;12.67;9.53;;;-4.50;99.90;;;;;;653823;219;26777;-77
2021/12/26 05:50:25;;;;;;;15.33;9.00;;;-4.40;99.90;;;;;;653772;219;26565;-77
2021/12/26 05:52:52;;;;;;;16.03;9.20;;;-4.60;99.90;;;;;;653748;219;26826;-77
2021/12/26 05:55:19;;;;;;;11.43;8.40;;;-4.70;99.90;;;;;;653647;220;26581;-77
2021/12/26 05:57:47;;;;;;;11.43;8.20;;;-4.70;99.90;;;;;;653628;219;26821;-77
2021/12/26 06:00:14;;;;;;;10.87;8.33;;;-4.60;99.90;;;;;;653664;219;26559;-77
2021/12/26 06:02:41;;;;;;;15.40;9.17;;;-4.50;99.90;;;;;;653503;217;26551;-77
2021/12/26 06:05:08;;;;;;;12.63;9.43;;;-4.50;99.90;;;;;;654815;217;26831;-77
2021/12/26 06:07:36;;;;;;;10.83;8.60;;;-4.60;99.90;;;;;;655073;219;26548;-77
2021/12/26 06:10:04;;;;;;;11.03;8.83;;;-4.70;99.90;;;;;;651877;220;26571;-77
2021/12/26 06:12:31;;;;;;;10.93;8.40;;;-4.70;99.90;;;;;;654731;219;26785;-82
2021/12/26 06:14:58;;;;;;;13.47;8.80;;;-4.60;99.90;;;;;;651487;219;26546;-77
2021/12/26 06:17:25;;;;;;;10.90;8.73;;;-4.60;99.90;;;;;;651390;219;26764;-77
2021/12/26 06:19:53;;;;;;;10.47;8.40;;;-4.60;99.90;;;;;;651438;219;26599;-77
2021/12/26 06:22:20;;;;;;;12.47;8.73;;;-4.70;99.90;;;;;;651313;220;26805;-77
2021/12/26 06:24:47;;;;;;;10.97;8.03;;;-4.90;99.90;;;;;;651101;220;26552;-77
2021/12/26 06:27:14;;;;;;;9.80;8.23;;;-5.00;99.90;;;;;;651052;219;26825;-77
2021/12/26 06:29:41;;;;;;;12.00;8.73;;;-4.90;99.90;;;;;;654020;219;26512;-77
2021/12/26 06:32:09;;;;;;;10.43;8.17;;;-4.80;99.90;;;;;;653878;219;26844;-77
2021/12/26 06:34:36;;;;;;;11.83;8.27;;;-4.80;99.90;;;;;;654082;219;26489;-77
2021/12/26 06:37:04;;;;;;;9.80;7.90;;;-4.80;99.90;;;;;;653870;219;26502;-78
2021/12/26 06:39:31;;;;;;;13.97;9.13;;;-4.80;99.90;;;;;;654109;219;26750;-78
2021/12/26 06:41:58;;;;;;;11.40;8.33;;;-4.90;99.90;;;;;;653862;219;26790;-77
2021/12/26 06:44:26;;;;;;;11.13;7.97;;;-4.90;99.90;;;;;;653679;219;26556;-77
2021/12/26 06:46:53;;;;;;;12.17;7.73;;;-4.90;99.90;;;;;;650727;220;26915;-77
2021/12/26 06:49:21;;;;;;;13.93;8.57;;;-4.90;99.90;;;;;;653688;219;27255;-77
2021/12/26 06:51:49;;;;;;;12.73;8.93;;;-4.80;99.90;;;;;;653667;220;26534;-77
2021/12/26 06:54:17;;;;;;;14.30;8.77;;;-4.80;99.90;;;;;;653660;219;26573;-77
2021/12/26 06:56:44;;;;;;;13.80;8.17;;;-4.80;99.90;;;;;;653689;219;26529;-77
2021/12/26 06:59:13;;;;;;;14.50;8.30;;;-4.80;99.90;;;;;;653604;219;26590;-77
2021/12/26 07:01:40;;;;;;;15.00;9.00;;;-4.80;99.90;;;;;;653604;219;26565;-77
2021/12/26 07:04:08;;;;;;;12.03;8.77;;;-4.80;99.90;;;;;;653661;219;26557;-78
2021/12/26 07:06:36;;;;;;;13.33;8.83;;;-4.90;99.90;;;;;;653791;219;26540;-77
2021/12/26 07:09:03;;;;;;;10.47;8.57;;;-4.90;99.90;;;;;;653720;219;26574;-77
2021/12/26 07:11:30;;;;;;;10.83;8.17;;;-4.90;99.90;;;;;;653822;220;26885;-77
2021/12/26 07:13:57;;;;;;;11.17;7.60;;;-4.90;99.90;;;;;;653803;219;26544;-77
2021/12/26 07:16:25;;;;;;;12.40;8.53;;;-4.80;99.90;;;;;;651711;218;26821;-77
2021/12/26 07:18:52;;;;;;;10.10;8.13;;;-4.80;99.90;;;;;;655092;219;26783;-77
2021/12/26 07:21:19;;;;;;;11.67;8.40;;;-4.80;99.90;;;;;;654842;219;26828;-77
2021/12/26 07:23:46;;;;;;;10.70;8.30;;;-4.80;99.90;;;;;;654768;219;26532;-77
2021/12/26 07:26:13;;;;;;;13.37;8.70;;;-4.80;99.90;;;;;;654484;219;26772;-77
2021/12/26 07:28:41;;;;;;;15.53;9.53;;;-4.80;99.90;;;;;;654449;220;26573;-78
2021/12/26 07:31:08;;;;;;;10.37;8.60;;;-4.80;99.90;;;;;;654473;219;26548;-77
2021/12/26 07:33:36;;;;;;;15.30;8.80;;;-4.70;99.90;;;;;;651434;220;26821;-77
2021/12/26 07:36:03;;;;;;;12.77;8.83;;;-4.60;99.90;;;;;;654039;219;26486;-77
2021/12/26 07:38:30;;;;;;;11.50;8.93;;;-4.60;99.90;;;;;;653948;218;26502;-77
2021/12/26 07:40:57;;;;;;;10.90;8.20;;;-4.70;99.90;;;;;;654030;219;26822;-77
2021/12/26 07:43:24;;;;;;;12.47;9.60;;;-4.80;99.90;;;;;;654042;219;26520;-77
2021/12/26 07:45:52;;;;;;;10.63;9.07;;;-4.80;99.90;;;;;;653997;219;26768;-77
2021/12/26 07:48:19;;;;;;;13.83;9.97;;;-4.70;99.90;;;;;;653932;219;26513;-77
2021/12/26 07:50:46;;;;;;;16.43;10.77;;;-4.70;99.90;;;;;;651017;219;26776;-77
2021/12/26 07:53:13;;;;;;;14.10;9.80;;;-4.80;99.90;;;;;;653769;219;26755;-77
2021/12/26 07:55:40;;;;;;;13.23;9.87;;;-4.80;99.90;;;;;;653744;219;26847;-77
2021/12/26 07:58:08;;;;;;;13.07;9.77;;;-4.70;99.90;;;;;;653784;219;26530;-77
2021/12/26 08:00:35;;;;;;;16.33;10.30;;;-4.60;99.90;;;;;;650746;220;27205;-77
2021/12/26 08:03:02;;;;;;;13.13;9.97;;;-4.70;99.90;;;;;;650844;220;26498;-77
2021/12/26 08:05:29;;;;;;;13.57;9.17;;;-4.60;99.90;;;;;;650850;220;26794;-78
2021/12/26 08:07:57;;;;;;;14.13;10.20;;;-4.70;99.90;;;;;;649981;220;26505;-77
2021/12/26 08:10:24;;;;;;;14.67;9.73;;;-4.60;99.90;;;;;;648247;220;26529;-77
2021/12/26 08:12:51;;;;;;;14.80;10.07;;;-4.50;99.90;;;;;;648870;220;26808;-79
2021/12/26 08:15:18;;;;;;;14.47;10.83;;;-4.40;99.90;;;;;;651067;220;26542;-77
2021/12/26 08:17:45;;;;;;;15.00;10.60;;;-4.30;99.90;;;;;;620464;229;26612;-77
2021/12/26 08:20:13;;;;;;;14.13;9.87;;;-4.30;99.90;;;;;;625745;228;26611;-77
2021/12/26 08:22:40;;;;;;;12.83;9.87;;;-4.30;99.90;;;;;;649129;220;26566;-77
2021/12/26 08:25:09;;;;;;;17.30;11.33;;;-4.30;99.90;;;;;;653782;218;26548;-75
2021/12/26 08:27:37;;;;;;;14.20;10.07;;;-4.30;99.90;;;;;;655114;217;26733;-77
2021/12/26 08:30:05;;;;;;;12.80;10.77;;;-4.40;99.90;;;;;;654107;218;26816;-76
2021/12/26 08:32:34;;;;;;;13.57;10.47;;;-3.90;99.90;;;;;;655148;218;26810;-76
2021/12/26 08:35:00;;;;;;;16.90;12.00;;;-4.30;99.90;;;;;;653378;218;26768;-78
2021/12/26 08:37:28;;;;;;;14.37;10.80;;;-4.30;99.90;;;;;;653691;219;26582;-77
2021/12/26 08:39:55;;;;;;;15.67;10.53;;;-4.10;99.90;;;;;;655310;219;26588;-78
2021/12/26 08:42:24;;;;;;;14.63;10.40;;;-4.00;99.90;;;;;;653915;219;26628;-78
2021/12/26 08:44:52;;;;;;;13.23;9.73;;;-4.00;99.90;;;;;;654135;219;26582;-77
2021/12/26 08:49:47;;;;;;;13.77;9.57;;;-4.00;99.90;;;;;;647667;213;35242;-79
2021/12/26 08:52:14;;;;;;;15.83;9.77;;;-4.00;99.90;;;;;;639976;224;26798;-77
2021/12/26 08:54:41;;;;;;;14.47;10.13;;;-3.80;99.90;;;;;;639763;222;26819;-78
2021/12/26 08:57:09;;;;;;;16.13;9.70;;;-3.80;99.90;;;;;;642698;221;26588;-78
2021/12/26 08:59:36;;;;;;;15.60;10.30;;;-3.70;99.90;;;;;;642592;221;26853;-77
2021/12/26 09:02:04;;;;;;;14.80;10.83;;;-3.70;99.90;;;;;;638544;224;26808;-77
2021/12/26 09:04:32;;;;;;;14.87;11.03;;;-3.70;99.90;;;;;;638306;224;26533;-77
2021/12/26 09:07:00;;;;;;;13.53;10.67;;;-3.60;99.90;;;;;;639962;222;26612;-77
2021/12/26 09:09:29;;;;;;;17.40;10.77;;;-3.50;99.90;;;;;;639363;224;26591;-77
2021/12/26 09:11:55;;;;;;;15.37;10.83;;;-3.60;99.90;;;;;;638574;223;26552;-78
2021/12/26 09:14:22;;;;;;;16.27;11.23;;;-3.50;99.90;;;;;;642431;221;26533;-77
2021/12/26 09:16:50;;;;;;;14.53;10.60;;;-3.40;99.90;;;;;;646359;221;26595;-77
2021/12/26 09:19:18;;;;;;;17.03;10.97;;;-3.30;99.90;;;;;;644133;217;26547;-78
2021/12/26 09:21:46;;;;;;;19.43;10.90;;;-3.30;99.90;;;;;;639367;224;26576;-78
2021/12/26 09:24:13;;;;;;;16.90;11.23;;;-3.40;99.90;;;;;;639974;222;26593;-78
2021/12/26 09:26:40;;;;;;;14.83;10.13;;;-3.30;99.90;;;;;;640046;222;26877;-78
2021/12/26 09:29:10;;;;;;;16.13;11.63;;;-3.20;99.90;;;;;;637159;224;26604;-78
2021/12/26 09:31:37;;;;;;;16.67;11.83;;;-3.20;99.90;;;;;;639490;224;26757;-78
2021/12/26 09:34:04;;;;;;;19.07;13.03;;;-3.10;99.90;;;;;;638928;224;26848;-78
2021/12/26 09:36:32;;;;;;;19.53;13.73;;;-3.20;99.90;;;;;;643228;222;26565;-78
2021/12/26 09:38:58;;;;;;;16.73;12.50;;;-3.10;99.90;;;;;;640290;222;26872;-77
2021/12/26 09:41:26;;;;;;;19.93;12.87;;;-2.90;99.90;;;;;;638476;219;26561;-77
2021/12/26 09:43:53;;;;;;;19.80;13.53;;;-2.90;99.90;;;;;;642912;221;26572;-77
2021/12/26 09:46:20;;;;;;;18.90;12.43;;;-2.80;99.90;;;;;;642917;221;26585;-77
2021/12/26 09:48:48;;;;;;;17.87;14.03;;;-2.60;99.90;;;;;;641344;221;26565;-77
2021/12/26 09:51:16;;;;;;;20.37;13.30;;;-2.50;99.90;;;;;;640662;222;26608;-78
2021/12/26 09:53:44;;;;;;;19.43;14.37;;;-2.50;99.90;;;;;;640076;222;26564;-78
2021/12/26 09:56:14;;;;;;;19.53;14.00;;;-2.40;99.90;;;;;;642510;221;26584;-77
2021/12/26 09:58:51;;;;;;;18.30;13.23;;;-2.30;99.90;;;;;;639098;222;26662;-78
2021/12/26 10:01:36;;;;;;;18.33;14.27;;;-2.30;99.90;;;;;;644731;221;26593;-77
2021/12/26 10:04:03;;;;;;;20.17;13.50;;;-2.40;99.90;;;;;;639752;221;26843;-77
2021/12/26 10:06:31;;;;;;;19.23;13.63;;;-2.30;99.90;;;;;;636333;225;26605;-77
2021/12/26 10:08:59;;;;;;;21.50;14.03;;;-2.40;99.90;;;;;;637624;225;26598;-77
2021/12/26 10:11:27;;;;;;;19.13;14.10;;;-2.30;99.90;;;;;;637291;225;26516;-76
2021/12/26 10:13:58;;;;;;;21.43;13.60;;;-2.20;99.90;;;;;;637545;224;26500;-77
2021/12/26 10:16:26;;;;;;;17.70;13.03;;;-2.20;99.90;;;;;;637653;224;26832;-77
2021/12/26 10:18:53;;;;;;;18.67;13.60;;;-2.50;99.90;;;;;;637177;225;26586;-77
2021/12/26 10:21:23;;;;;;;18.23;14.67;;;-2.70;99.90;;;;;;637143;225;26804;-77
2021/12/26 10:23:50;;;;;;;21.10;13.53;;;-2.60;99.90;;;;;;639756;224;26766;-77
2021/12/26 10:26:21;;;;;;;20.13;13.33;;;-2.50;99.90;;;;;;640665;219;26822;-77
2021/12/26 10:28:59;;;;;;;19.77;12.90;;;-2.30;99.90;;;;;;640568;223;26809;-77
2021/12/26 10:31:27;;;;;;;20.77;13.90;;;-2.20;99.90;;;;;;640707;224;26560;-76
2021/12/26 10:33:54;;;;;;;20.60;13.63;;;-2.20;99.90;;;;;;640677;223;26584;-77
2021/12/26 10:36:21;;;;;;;16.73;12.53;;;-2.10;99.90;;;;;;640382;224;26733;-77
2021/12/26 10:39:07;;;;;;;18.63;11.53;;;-1.90;99.90;;;;;;640199;224;26552;-77
2021/12/26 10:41:34;;;;;;;16.23;11.03;;;-1.90;99.90;;;;;;643434;222;26579;-78
2021/12/26 10:44:02;;;;;;;15.70;11.97;;;-1.70;99.90;;;;;;646509;222;26596;-77
2021/12/26 10:46:31;;;;;;;16.00;11.07;;;-1.70;99.90;;;;;;649810;221;26527;-77
2021/12/26 10:48:59;;;;;;;15.43;10.73;;;-1.70;99.90;;;;;;648247;221;26580;-77
2021/12/26 10:51:32;;;;;;;12.50;9.60;;;-1.70;99.90;;;;;;634167;226;26583;-78
2021/12/26 10:54:11;;;;;;;11.10;9.33;;;-1.90;99.90;;;;;;637000;224;26572;-77
2021/12/26 10:56:38;;;;;;;10.20;8.13;;;-1.80;99.40;;;;;;642772;221;26901;-77
2021/12/26 10:59:17;;;;;;;11.67;8.87;;;-1.90;98.90;;;;;;636842;224;26580;-77
2021/12/26 11:01:44;;;;;;;9.80;8.00;;;-2.10;99.40;;;;;;636858;226;26564;-77
2021/12/26 11:04:12;;;;;;;10.87;8.43;;;-1.90;99.90;;;;;;636919;224;26566;-76
2021/12/26 11:06:52;;;;;;;9.97;7.73;;;-1.70;99.10;;;;;;636960;224;26569;-77
2021/12/26 11:09:19;;;;;;;9.80;7.70;;;-1.70;99.10;;;;;;642184;222;26608;-77
2021/12/26 11:12:04;;;;;;;11.07;8.13;;;-1.60;99.00;;;;;;648293;220;26573;-78
2021/12/26 11:14:31;;;;;;;9.27;8.37;;;-1.40;99.10;;;;;;648464;221;26523;-83
2021/12/26 11:16:58;;;;;;;10.57;7.83;;;-1.40;98.00;;;;;;648154;221;26902;-84
2021/12/26 11:19:37;;;;;;;9.63;7.77;;;-1.40;98.10;;;;;;648058;221;26609;-87
2021/12/26 11:22:05;;;;;;;10.47;7.17;;;-1.50;98.60;;;;;;647725;222;26526;-83
2021/12/26 11:24:32;;;;;;;7.53;6.70;;;-1.40;98.40;;;;;;647768;222;26565;-83
2021/12/26 11:26:59;;;;;;;7.60;6.73;;;-1.30;96.80;;;;;;647763;222;27222;-84
2021/12/26 11:29:26;;;;;;;7.40;6.03;;;-1.30;96.10;;;;;;647623;222;26594;-81
2021/12/26 11:31:54;;;;;;;6.60;5.97;;;-1.20;96.00;;;;;;647278;222;27351;-80
2021/12/26 11:34:21;;;;;;;7.27;5.90;;;-1.20;95.60;;;;;;647364;222;26589;-79
2021/12/26 11:36:50;;;;;;;7.57;6.30;;;-1.10;95.50;;;;;;647832;221;26838;-81
2021/12/26 11:39:17;;;;;;;6.57;5.87;;;-1.00;95.20;;;;;;649935;221;27386;-82
2021/12/26 11:41:58;;;;;;;6.20;5.60;;;-1.00;94.10;;;;;;650001;221;26562;-81
2021/12/26 11:44:46;;;;;;;5.90;5.30;;;-0.90;95.80;;;;;;648998;221;26915;-81
2021/12/26 11:47:15;;;;;;;6.03;5.47;;;-0.80;94.10;;;;;;649316;221;26601;-81
2021/12/26 11:50:01;;;;;;;8.33;6.40;;;-0.70;93.00;;;;;;648258;221;26594;-81
2021/12/26 11:52:51;;;;;;;8.30;5.80;;;-0.80;93.00;;;;;;649132;221;26792;-81
2021/12/26 11:55:20;;;;;;;8.17;6.03;;;-0.70;94.20;;;;;;644891;221;26611;-81
2021/12/26 11:57:59;;;;;;;6.47;5.60;;;-0.70;94.00;;;;;;649230;221;27187;-81
2021/12/26 12:00:27;;;;;;;8.50;5.70;;;-0.70;93.40;;;;;;649730;221;26802;-81
2021/12/26 12:02:55;;;;;;;5.70;5.10;;;-0.70;93.40;;;;;;649844;221;26533;-81
2021/12/26 12:05:24;;;;;;;7.70;5.80;;;-0.70;93.60;;;;;;649733;221;26522;-82
2021/12/26 12:07:51;;;;;;;6.00;5.50;;;-0.70;92.70;;;;;;649745;221;26535;-81
2021/12/26 12:10:27;;;;;;;7.07;5.63;;;-0.60;92.40;;;;;;647520;221;26538;-81
2021/12/26 12:12:54;;;;;;;6.07;5.47;;;-0.50;91.40;;;;;;640245;224;26549;-81
2021/12/26 12:15:40;;;;;;;6.10;5.47;;;-0.50;91.40;;;;;;640440;224;26572;-81
2021/12/26 12:18:09;;;;;;;6.20;5.60;;;-0.50;90.70;;;;;;639161;223;26532;-81
2021/12/26 12:20:36;;;;;;;7.33;5.97;;;-0.70;91.40;;;;;;640494;224;26548;-81
2021/12/26 12:23:13;;;;;;;6.53;5.87;;;-0.60;91.50;;;;;;641555;222;26586;-80
2021/12/26 12:25:40;;;;;;;9.93;6.00;;;-0.60;91.40;;;;;;641926;224;26902;-81
2021/12/26 12:28:08;;;;;;;6.07;5.33;;;-0.50;91.60;;;;;;641601;223;26565;-80
2021/12/26 12:30:36;;;;;;;5.77;5.13;;;-0.60;89.50;;;;;;641431;223;26624;-81
2021/12/26 12:33:18;;;;;;;6.13;5.57;;;-0.40;90.50;;;;;;641215;223;26529;-80
2021/12/26 12:35:54;;;;;;;5.63;5.10;;;-0.60;88.30;;;;;;641167;224;26525;-80
2021/12/26 12:38:24;;;;;;;10.87;7.77;;;-0.50;92.80;;;;;;641101;223;26501;-80
2021/12/26 12:40:52;;;;;;;6.03;5.33;;;-0.50;92.80;;;;;;640941;224;26552;-79
2021/12/26 12:43:19;;;;;;;6.73;6.03;;;-0.50;91.30;;;;;;640807;224;26796;-78